Latest Weather Observations for Applethorpe

IDN60801

Issued at 11:34 am EST Wednesday 1 June 2016 (issued every 30 minutes, with the page automatically refreshed every 10 minutes)

About weather observations | Map of weather stations | Latest weather observations for NSW | Other Formats
Station Details ID: 041175 Name: APPLETHORPE Lat: -28.62 Lon: 151.95 Height: 871.6 m
Data from the previous 72 hours. | See also: Recent months at Applethorpe
Date/Time
EST
Temp
°C
App
Temp
°C
Dew
Point
Rel
Hum
%
Delta-T
°C
Wind Press
QNH
hPa
Press
MSL
hPa
Rain
since 9 am
mm
Dir
 
Spd
km/h
Gust
km/h
Spd
kts
Gust
kts
01/11:30am 14.4 12.0 6.9 60 3.8 E 9 15 5 8 1026.8 1026.7 0.0
01/11:00am 15.0 13.2 7.9 62 3.7 E 7 11 4 6 1027.2 1027.1 0.0
01/10:30am 14.1 11.9 7.9 66 3.2 E 9 17 5 9 1027.4 1027.3 0.0
01/10:00am 13.7 11.7 8.7 72 2.6 ENE 9 19 5 10 1027.6 1027.5 0.0
01/09:30am 12.1 10.1 8.6 79 1.8 ENE 9 17 5 9 1027.6 1026.4 0.0
01/09:00am 11.3 9.8 9.0 86 1.2 ENE 7 17 4 9 1027.5 1026.3 0.0
01/08:30am 10.4 9.1 9.2 92 0.6 ENE 6 9 3 5 1027.2 1025.9 0.0
01/08:00am 8.9 7.8 8.5 97 0.2 ENE 4 9 2 5 1027.3 1026.0 0.0
01/07:30am 7.1 5.6 6.7 97 0.2 ENE 4 6 2 3 1027.1 1025.8 0.0
01/07:00am 6.1 5.1 5.5 96 0.3 CALM 0 0 0 0 1026.9 1025.7 0.0
01/06:30am 5.3 4.2 5.3 100 0.0 CALM 0 0 0 0 1026.6 1025.4 0.0
01/06:00am 5.6 4.6 5.4 99 0.1 CALM 0 0 0 0 1026.3 1025.0 0.0
01/05:30am 5.8 4.8 5.6 99 0.1 CALM 0 0 0 0 1026.0 1024.7 0.0
01/05:00am 6.4 5.2 6.4 100 0.0 NE 2 2 1 1 1026.0 1024.7 0.0
01/04:30am 5.8 4.8 5.4 97 0.2 CALM 0 0 0 0 1025.9 1024.6 0.0
01/04:00am 6.7 5.9 6.3 97 0.2 CALM 0 2 0 1 1025.5 1024.3 0.0
01/03:30am 7.5 6.5 7.5 100 0.0 NNE 2 6 1 3 1025.9 1024.6 0.0
01/03:00am 7.8 6.4 7.4 97 0.2 ENE 4 6 2 3 1025.7 1024.5 0.0
01/02:30am 7.8 6.9 7.6 99 0.1 ENE 2 7 1 4 1026.1 1024.8 0.0
01/02:00am 7.7 6.6 7.1 96 0.3 NE 2 4 1 2 1026.2 1024.9 0.0
01/01:30am 7.5 6.1 7.1 97 0.2 NE 4 6 2 3 1026.3 1025.0 0.0
01/01:00am 8.0 7.0 7.4 96 0.3 NE 2 4 1 2 1026.5 1025.3 0.0
01/12:30am 7.6 6.5 7.0 96 0.3 ENE 2 6 1 3 1026.4 1025.1 0.0
01/12:00am 7.3 5.8 6.7 96 0.3 NE 4 6 2 3 1026.9 1025.7 0.0
 
Date/Time
EST
Temp
°C
App
Temp
°C
Dew
Point
Rel
Hum
%
Delta-T
°C
Wind Press
QNH
hPa
Press
MSL
hPa
Rain
since 9 am
mm
Dir
 
Spd
km/h
Gust
km/h
Spd
kts
Gust
kts
31/11:30pm 7.4 5.9 6.8 96 0.3 ENE 4 6 2 3 1027.2 1025.9 0.0
31/11:00pm 7.2 6.5 6.8 97 0.2 CALM 0 6 0 3 1027.4 1026.1 0.0
31/10:30pm 7.4 6.7 7.0 97 0.2 CALM 0 0 0 0 1027.6 1026.4 0.0
31/10:00pm 7.1 5.9 6.5 96 0.3 ENE 2 6 1 3 1027.7 1026.5 0.0
31/09:30pm 7.0 6.2 6.4 96 0.3 CALM 0 0 0 0 1027.8 1026.6 0.0
31/09:00pm 8.1 6.9 6.4 89 0.8 NE 2 4 1 2 1027.7 1026.5 0.0
31/08:30pm 9.6 8.2 7.2 85 1.2 ENE 4 7 2 4 1027.4 1026.1 0.0
31/08:00pm 10.3 8.9 7.3 82 1.5 ENE 4 7 2 4 1027.4 1026.1 0.0
31/07:30pm 10.8 9.4 7.2 78 1.8 ENE 4 7 2 4 1027.3 1026.0 0.0
31/07:00pm 11.0 10.0 7.4 78 1.8 ENE 2 6 1 3 1027.3 1026.0 0.0
31/06:30pm 11.3 9.5 7.1 75 2.1 ENE 6 9 3 5 1027.1 1025.8 0.0
31/06:00pm 11.6 9.8 7.0 73 2.3 ENE 6 13 3 7 1026.6 1025.4 0.0
31/05:30pm 12.0 10.0 6.1 67 2.9 ENE 6 11 3 6 1026.6 1025.4 0.0
31/05:00pm 12.8 10.8 6.1 64 3.3 E 6 11 3 6 1026.5 1025.3 0.0
31/04:30pm 13.6 11.4 6.4 62 3.6 ENE 7 13 4 7 1026.0 1024.7 0.0
31/04:00pm 14.3 12.2 5.9 57 4.2 NE 6 11 3 6 1026.0 1024.7 0.0
31/03:30pm 15.0 13.2 5.5 53 4.7 NE 4 9 2 5 1025.9 1024.6 0.0
31/03:00pm 16.2 14.1 4.1 44 5.9 ESE 4 7 2 4 1025.7 1024.5 0.0
31/02:30pm 16.2 13.6 3.2 41 6.2 NE 6 9 3 5 1025.4 1024.1 0.0
31/02:00pm 15.4 13.1 2.9 43 5.9 NE 4 7 2 4 1025.7 1024.5 0.0
31/01:30pm 16.0 14.1 2.9 41 6.2 ENE 2 9 1 5 1025.6 1024.4 0.0
31/01:00pm 15.8 13.2 4.0 45 5.7 NNE 7 13 4 7 1026.3 1025.0 0.0
31/12:30pm 15.9 13.5 5.2 49 5.3 ENE 7 15 4 8 1026.6 1025.4 0.0
31/12:00pm 15.6 13.1 4.8 48 5.3 NNE 7 13 4 7 1026.8 1025.6 0.0
31/11:30am 15.7 13.5 6.2 53 4.8 NE 7 13 4 7 1027.3 1026.0 0.0
31/11:00am 13.9 11.8 6.5 61 3.7 ENE 7 13 4 7 1027.9 1026.7 0.0
31/10:30am 13.5 11.5 7.0 65 3.3 NE 7 15 4 8 1028.2 1027.0 0.0
31/10:00am 12.7 10.4 7.6 71 2.6 NE 9 17 5 9 1028.5 1027.3 0.0
31/09:30am 12.3 10.6 8.2 76 2.1 NE 7 13 4 7 1028.6 1027.4 0.0
31/09:00am 10.9 9.5 8.8 87 1.1 ENE 6 13 3 7 1028.6 1027.4 0.0
31/08:30am 9.8 8.8 8.8 93 0.5 ENE 4 7 2 4 1028.1 1026.9 0.0
31/08:00am 8.7 7.8 7.9 95 0.4 ENE 2 6 1 3 1027.9 1026.7 0.0
31/07:30am 7.2 6.5 6.8 97 0.2 CALM 0 0 0 0 1027.5 1026.3 0.0
31/07:00am 6.4 5.1 6.2 99 0.1 NE 2 4 1 2 1027.1 1025.8 0.0
31/06:30am 5.9 4.9 5.7 99 0.1 CALM 0 2 0 1 1027.1 1025.8 0.0
31/06:00am 5.2 3.7 5.0 99 0.1 NNE 2 2 1 1 1026.5 1025.3 0.0
31/05:30am 4.1 2.7 3.6 97 0.2 CALM 0 0 0 0 1026.5 1025.3 0.0
31/05:00am 4.3 3.0 4.3 100 0.0 CALM 0 0 0 0 1026.1 1024.8 0.0
31/04:30am 4.4 2.7 3.9 97 0.2 N 2 4 1 2 1026.1 1024.8 0.0
31/04:00am 4.2 2.8 3.7 97 0.2 CALM 0 0 0 0 1025.6 1024.4 0.0
31/03:30am 4.1 2.8 3.9 99 0.1 CALM 0 0 0 0 1025.7 1024.5 0.0
31/03:00am 4.2 2.8 3.7 97 0.2 CALM 0 2 0 1 1025.6 1024.4 0.0
31/02:30am 4.0 2.3 3.8 99 0.1 NNE 2 2 1 1 1025.7 1024.5 0.0
31/02:00am 4.0 2.2 3.5 97 0.2 NE 2 4 1 2 1025.9 1024.6 0.0
31/01:30am 3.4 1.6 3.2 99 0.1 NE 2 4 1 2 1025.7 1024.5 0.0
31/01:00am 2.7 1.1 2.5 99 0.1 CALM 0 0 0 0 1026.2 1024.9 0.0
31/12:30am 2.8 1.2 2.3 96 0.2 CALM 0 0 0 0 1026.2 1024.9 0.0
31/12:00am 3.6 2.1 3.1 97 0.2 CALM 0 0 0 0 1026.2 1024.9 0.0
 
Date/Time
EST
Temp
°C
App
Temp
°C
Dew
Point
Rel
Hum
%
Delta-T
°C
Wind Press
QNH
hPa
Press
MSL
hPa
Rain
since 9 am
mm
Dir
 
Spd
km/h
Gust
km/h
Spd
kts
Gust
kts
30/11:30pm 4.3 2.5 3.6 95 0.3 NNE 2 4 1 2 1026.1 1024.8 0.0
30/11:00pm 4.2 2.4 3.7 97 0.2 NE 2 6 1 3 1026.0 1024.7 0.0
30/10:30pm 3.7 1.8 2.8 94 0.4 NE 2 2 1 1 1026.1 1024.8 0.0
30/10:00pm 2.5 0.3 1.3 92 0.5 NNE 2 2 1 1 1026.1 1024.8 0.0
30/09:30pm 1.6 -1.1 0.6 93 0.4 N 4 4 2 2 1026.4 1025.1 0.0
30/09:00pm 2.0 0.0 0.2 88 0.7 CALM 0 0 0 0 1026.2 1024.9 0.0
30/08:30pm 2.2 0.3 0.4 88 0.7 CALM 0 0 0 0 1026.2 1024.9 0.0
30/08:00pm 2.7 0.8 0.7 87 0.8 CALM 0 0 0 0 1026.0 1024.7 0.0
30/07:30pm 3.4 1.2 1.2 85 0.9 NNE 2 4 1 2 1025.7 1024.5 0.0
30/07:00pm 4.1 2.3 1.2 81 1.2 CALM 0 0 0 0 1025.3 1024.0 0.0
30/06:30pm 5.1 3.0 1.5 77 1.5 ENE 2 2 1 1 1024.7 1023.4 0.0
30/06:00pm 6.9 5.1 0.9 65 2.5 CALM 0 0 0 0 1024.6 1023.3 0.0
30/05:30pm 7.8 6.0 1.2 63 2.8 CALM 0 0 0 0 1024.2 1022.9 0.0
30/05:00pm 10.6 7.9 0.3 49 4.4 W 4 6 2 3 1023.9 1022.6 0.0
30/04:30pm 13.7 10.3 -1.7 34 6.5 W 6 7 3 4 1023.7 1022.4 0.0
30/04:00pm 15.6 12.4 -3.5 26 7.9 WNW 4 9 2 5 1023.4 1022.0 0.0
30/03:30pm 15.7 12.0 -2.9 27 7.8 WSW 7 11 4 6 1023.0 1021.7 0.0
30/03:00pm 16.3 12.8 -2.9 26 8.1 NNW 6 11 3 6 1023.0 1021.7 0.0
30/02:30pm 16.7 13.0 -4.6 23 8.7 NNW 6 11 3 6 1023.0 1021.7 0.0
30/02:00pm 16.5 13.3 -3.3 25 8.3 N 4 11 2 6 1022.6 1021.3 0.0
30/01:30pm 16.3 12.6 -4.6 23 8.5 WSW 6 11 3 6 1022.7 1021.4 0.0
30/01:00pm 16.9 14.0 -1.4 28 8.0 NE 4 9 2 5 1022.8 1021.5 0.0
30/12:30pm 16.5 13.1 -2.1 28 8.0 ENE 6 11 3 6 1023.1 1021.8 0.0
30/12:00pm 15.9 12.3 -3.3 26 8.0 NE 6 9 3 5 1023.6 1022.3 0.0
30/11:30am 14.6 10.7 -4.3 27 7.6 N 7 15 4 8 1024.1 1022.8 0.0
30/11:00am 14.0 10.7 0.1 38 6.1 NNE 7 15 4 8 1024.4 1023.2 0.0
30/10:30am 13.4 10.9 1.4 44 5.4 NNE 4 7 2 4 1024.8 1023.5 0.0
30/10:00am 12.2 9.3 1.4 47 4.8 NNE 6 13 3 7 1024.8 1023.5 0.0
30/09:30am 10.9 8.6 3.0 58 3.6 ENE 4 9 2 5 1024.8 1023.5 0.0
30/09:00am 9.1 7.8 3.9 70 2.4 CALM 0 4 0 2 1024.9 1023.6 0.0
30/08:30am 5.5 4.0 3.0 84 1.1 CALM 0 0 0 0 1024.4 1023.2 0.0
30/08:00am 1.3 -0.6 0.3 93 0.4 CALM 0 0 0 0 1024.1 1022.8 0.0
30/07:30am -0.8 - - - - CALM 0 0 0 0 1023.9 1022.6 0.0
30/07:00am -2.4 - - - - CALM 0 0 0 0 1023.8 1022.5 0.0
30/06:30am -2.6 - - - - CALM 0 0 0 0 1023.1 1021.8 0.0
30/06:00am -2.5 - - - - CALM 0 0 0 0 1022.9 1021.6 0.0
30/05:30am -2.4 - - - - CALM 0 0 0 0 1022.6 1021.3 0.0
30/05:00am -2.1 - - - - CALM 0 0 0 0 1022.4 1021.0 0.0
30/04:30am -1.9 - - - - CALM 0 0 0 0 1021.9 1020.6 0.0
30/04:00am -2.1 - - - - CALM 0 0 0 0 1021.8 1020.5 0.0
30/03:30am -1.5 - - - - CALM 0 0 0 0 1021.7 1020.4 0.0
30/03:00am -1.5 - - - - NE 2 2 1 1 1021.5 1020.2 0.0
30/02:30am -1.3 - - - - CALM 0 0 0 0 1021.6 1020.3 0.0
30/02:00am -1.2 - - - - CALM 0 0 0 0 1021.5 1020.2 0.0
30/01:30am -0.7 - - - - CALM 0 0 0 0 1021.5 1020.2 0.0
30/01:00am -0.6 - - - - CALM 0 0 0 0 1021.6 1020.3 0.0
30/12:30am -0.3 - - - - CALM 0 0 0 0 1021.7 1020.4 0.0
30/12:00am 0.2 - - - - CALM 0 0 0 0 1021.6 1020.3 0.0
 
Date/Time
EST
Temp
°C
App
Temp
°C
Dew
Point
Rel
Hum
%
Delta-T
°C
Wind Press
QNH
hPa
Press
MSL
hPa
Rain
since 9 am
mm
Dir
 
Spd
km/h
Gust
km/h
Spd
kts
Gust
kts
29/11:30pm 0.7 -1.3 0.2 96 0.2 CALM 0 0 0 0 1021.7 1020.4 0.0
29/11:00pm 1.2 -0.7 0.4 94 0.3 CALM 0 0 0 0 1021.9 1020.6 0.0
29/10:30pm 1.5 -0.3 1.2 98 0.1 CALM 0 0 0 0 1021.9 1020.6 0.0
29/10:00pm 2.0 0.2 1.3 95 0.3 CALM 0 0 0 0 1022.0 1020.7 0.0
29/09:30pm 2.5 0.8 1.8 95 0.3 CALM 0 0 0 0 1022.0 1020.7 0.0
29/09:00pm 3.0 0.7 2.5 96 0.2 SSW 4 6 2 3 1022.0 1020.7 0.0
29/08:30pm 3.8 2.2 2.4 91 0.6 CALM 0 2 0 1 1021.8 1020.5 0.0
29/08:00pm 4.9 2.6 2.8 86 0.9 SW 4 6 2 3 1021.7 1020.4 0.0
29/07:30pm 5.9 3.2 2.4 78 1.5 SSW 6 7 3 4 1021.5 1020.2 0.0
29/07:00pm 5.9 3.2 2.9 81 1.3 WSW 6 7 3 4 1021.1 1019.7 0.0
29/06:30pm 7.6 4.9 2.6 70 2.2 SW 6 9 3 5 1020.6 1019.3 0.0
29/06:00pm 8.4 5.6 2.3 65 2.7 WSW 6 11 3 6 1020.5 1019.2 0.0
29/05:30pm 9.2 6.5 2.5 63 3.0 SW 6 9 3 5 1019.9 1018.5 0.0
29/05:00pm 10.3 7.2 1.4 54 3.9 WSW 7 13 4 7 1019.5 1018.2 0.0
29/04:30pm 11.8 8.2 0.6 46 4.9 WSW 9 17 5 9 1019.2 1017.8 0.0
29/04:00pm 13.2 9.2 0.8 42 5.5 WSW 11 19 6 10 1018.9 1017.5 0.0
29/03:30pm 13.9 10.1 1.6 43 5.6 W 11 19 6 10 1018.6 1017.2 0.0
29/03:00pm 14.2 10.2 0.5 39 6.1 WSW 11 20 6 11 1018.3 1016.9 0.0
29/02:30pm 14.5 10.5 0.7 39 6.2 W 11 15 6 8 1018.1 1016.7 0.0
29/02:00pm 14.4 10.5 1.1 40 6.0 WSW 11 20 6 11 1018.2 1016.8 0.0
29/01:30pm 14.2 10.3 1.1 41 5.9 WSW 11 19 6 10 1018.1 1016.7 0.0
29/01:00pm 14.2 10.8 1.7 42 5.7 W 9 17 5 9 1018.2 1016.8 0.0
29/12:30pm 14.2 10.7 1.4 42 5.8 WSW 9 15 5 8 1018.6 1017.2 0.0
29/12:00pm 13.9 9.9 0.7 40 5.9 WSW 11 20 6 11 1018.6 1017.2 0.0

Other Formats:

Comma delimited format used in spreadsheet applications
http://www.bom.gov.au/fwo/IDN60801/IDN60801.94553.axf

JavaScript Object Notation format (JSON) in row-major order
http://www.bom.gov.au/fwo/IDN60801/IDN60801.94553.json